Wylde Swan — PIWS — position and weather

sailwx.info

Track history (hours):
 
Tides and Currents Weather Stations Pressure Air Temp Water Temp Dewpoint Dewpoint Depression Visibility Wind Speed Wind Dir Waves Ship Positions

Wylde Swan

Last reported at 2019-Nov-23 15:10 UTC. Time now 2019-Dec-12 07:58 UTC.
Position N 28°06' W 016°16'.
Warning: this ship's position is 18 days out of date.

Length 45 m; draft 3.4 m.

Type: Sailing vessel. MMSI: 244074000.

Date/timePositionNaut miles runAvg speedWind from/ knotsBaromVisibWave heightAir tempDewpointWater temp
2019-Nov-23 15:10N 28°06' W 016°16'4 1.6
2019-Nov-23 12:58N 28°09' W 016°15'1 1.6
2019-Nov-23 12:30N 28°10' W 016°14'6 2.5
2019-Nov-23 10:00N 28°14' W 016°08'1 1.8
2019-Nov-23 09:30N 28°14' W 016°08'3 1.3
2019-Nov-23 07:00N 28°17' W 016°06'0 0.1
2019-Nov-23 04:00N 28°17' W 016°07'0 0.5
2019-Nov-23 03:30N 28°17' W 016°07'0 0.3
2019-Nov-23 03:00N 28°17' W 016°07'1 0.7
2019-Nov-23 01:30N 28°18' W 016°08'1 0.7
2019-Nov-23 00:30N 28°18' W 016°09'0 0.8
2019-Nov-23 00:00N 28°18' W 016°09'2 1.5
2019-Nov-22 22:30N 28°19' W 016°11'1 0.5
2019-Nov-22 21:30N 28°20' W 016°12'2 1.5
2019-Nov-22 20:00N 28°20' W 016°14'1 2.6
2019-Nov-22 19:30N 28°21' W 016°16'4 2.2
2019-Nov-22 17:30N 28°21' W 016°11'5 3.1
2019-Nov-22 16:00N 28°25' W 016°14'3 2.5
2019-Nov-22 15:00N 28°27' W 016°15'0 0.9
2019-Nov-22 14:30N 28°28' W 016°15'0 0.0
2019-Nov-22 13:30N 28°28' W 016°15'0 0.0
2019-Nov-22 12:00N 28°28' W 016°15'0 0.0
2019-Nov-22 11:00N 28°28' W 016°15'0 0.0
2019-Nov-22 09:00N 28°28' W 016°15'0 0.0
2019-Nov-22 08:30N 28°28' W 016°15'0 0.0
2019-Nov-22 07:30N 28°28' W 016°15'0 0.0
2019-Nov-22 07:00N 28°28' W 016°15'0 0.0
2019-Nov-22 06:00N 28°28' W 016°15'0 0.0
2019-Nov-22 03:30N 28°28' W 016°15'0 0.0
2019-Nov-22 02:30N 28°28' W 016°15'0 0.0
2019-Nov-21 23:30N 28°28' W 016°15'0 0.0
2019-Nov-21 19:30N 28°28' W 016°15'0 0.0
2019-Nov-21 18:00N 28°28' W 016°15'0 0.0
2019-Nov-21 17:00N 28°28' W 016°15'0 0.0
2019-Nov-21 16:00N 28°28' W 016°15'0 0.0
2019-Nov-21 15:30N 28°28' W 016°15'0 0.0
2019-Nov-21 12:30N 28°28' W 016°15'0 0.0
2019-Nov-21 12:00N 28°28' W 016°15'0 0.0
2019-Nov-21 10:30N 28°28' W 016°15'0 0.0
2019-Nov-21 10:00N 28°28' W 016°15'0 0.0
2019-Nov-21 09:00N 28°28' W 016°15'0 0.0
2019-Nov-21 07:30N 28°28' W 016°15'0 0.0
2019-Nov-21 05:30N 28°28' W 016°15'0 0.0
2019-Nov-21 03:30N 28°28' W 016°15'0 0.0
2019-Nov-21 01:30N 28°28' W 016°15'0 0.0
2019-Nov-21 00:30N 28°28' W 016°15'0 0.0
2019-Nov-20 23:00N 28°28' W 016°15'0 0.0
2019-Nov-20 22:00N 28°28' W 016°15'0 0.0
2019-Nov-20 21:30N 28°28' W 016°15'0 0.0
2019-Nov-20 21:00N 28°28' W 016°15'0 0.0
2019-Nov-20 20:00N 28°28' W 016°15'0 0.0
2019-Nov-20 18:30N 28°28' W 016°15'0 0.0
2019-Nov-20 18:00N 28°28' W 016°15'0 0.0
2019-Nov-20 14:30N 28°28' W 016°15'0 0.0
2019-Nov-20 13:00N 28°28' W 016°15'0 0.0
2019-Nov-20 12:00N 28°28' W 016°15'0 0.0
2019-Nov-20 08:30N 28°28' W 016°15'0 0.0
2019-Nov-20 07:30N 28°28' W 016°15'0 0.0
2019-Nov-20 06:30N 28°28' W 016°15'0 0.0
2019-Nov-20 04:30N 28°28' W 016°15'0 0.0
2019-Nov-20 03:30N 28°28' W 016°15'0 0.0
2019-Nov-20 02:30N 28°28' W 016°15'0 0.0
2019-Nov-19 23:30N 28°28' W 016°15'0 0.0
2019-Nov-19 22:30N 28°28' W 016°15'0 0.0
2019-Nov-19 21:00N 28°28' W 016°15'0 0.0
2019-Nov-19 18:30N 28°28' W 016°15'0 0.0
2019-Nov-19 18:00N 28°28' W 016°15'0 0.0
2019-Nov-19 16:30N 28°28' W 016°15'0 0.0
2019-Nov-19 14:30N 28°28' W 016°15'0 0.0
2019-Nov-19 13:30N 28°28' W 016°15'0 0.0
2019-Nov-19 10:57N 28°28' W 016°15'0 0.0
2019-Nov-19 09:00N 28°28' W 016°15'0 0.0
2019-Nov-19 07:00N 28°28' W 016°15'0 0.0
2019-Nov-19 04:30N 28°28' W 016°15'0 0.0
2019-Nov-19 02:00N 28°28' W 016°15'0 0.0
2019-Nov-18 23:30N 28°28' W 016°15'0 0.0
2019-Nov-18 22:30N 28°28' W 016°15'0 0.0
2019-Nov-18 22:00N 28°28' W 016°15'0 0.0
2019-Nov-18 21:30N 28°28' W 016°15'0 0.0
2019-Nov-18 20:30N 28°28' W 016°15'0 0.0
2019-Nov-18 20:00N 28°28' W 016°15'0 0.0
2019-Nov-18 19:30N 28°28' W 016°15'0 0.0
2019-Nov-18 16:00N 28°28' W 016°15'0 0.0
2019-Nov-18 15:30N 28°28' W 016°15'1 0.4
2019-Nov-18 13:01N 28°27' W 016°14'3 5.9
2019-Nov-18 12:31N 28°27' W 016°10'8 5.2
2019-Nov-18 11:00N 28°34' W 016°06'  
Track history (hours):
 
Tides and Currents Weather Stations Pressure Air Temp Water Temp Dewpoint Dewpoint Depression Visibility Wind Speed Wind Dir Waves Ship Positions

Wylde Swan

Last reported at 2019-Nov-23 15:10 UTC. Time now 2019-Dec-12 07:58 UTC.
Position N 28°06' W 016°16'.
Warning: this ship's position is 18 days out of date.

Length 45 m; draft 3.4 m.

Type: Sailing vessel. MMSI: 244074000.

Date/timePositionNaut miles runAvg speedWind from/ knotsBaromVisibWave heightAir tempDewpointWater temp
2019-Nov-23 15:10N 28°06' W 016°16'4 1.6
2019-Nov-23 12:58N 28°09' W 016°15'1 1.6
2019-Nov-23 12:30N 28°10' W 016°14'6 2.5
2019-Nov-23 10:00N 28°14' W 016°08'1 1.8
2019-Nov-23 09:30N 28°14' W 016°08'3 1.3
2019-Nov-23 07:00N 28°17' W 016°06'0 0.1
2019-Nov-23 04:00N 28°17' W 016°07'0 0.5
2019-Nov-23 03:30N 28°17' W 016°07'0 0.3
2019-Nov-23 03:00N 28°17' W 016°07'1 0.7
2019-Nov-23 01:30N 28°18' W 016°08'1 0.7
2019-Nov-23 00:30N 28°18' W 016°09'0 0.8
2019-Nov-23 00:00N 28°18' W 016°09'2 1.5
2019-Nov-22 22:30N 28°19' W 016°11'1 0.5
2019-Nov-22 21:30N 28°20' W 016°12'2 1.5
2019-Nov-22 20:00N 28°20' W 016°14'1 2.6
2019-Nov-22 19:30N 28°21' W 016°16'4 2.2
2019-Nov-22 17:30N 28°21' W 016°11'5 3.1
2019-Nov-22 16:00N 28°25' W 016°14'3 2.5
2019-Nov-22 15:00N 28°27' W 016°15'0 0.9
2019-Nov-22 14:30N 28°28' W 016°15'0 0.0
2019-Nov-22 13:30N 28°28' W 016°15'0 0.0
2019-Nov-22 12:00N 28°28' W 016°15'0 0.0
2019-Nov-22 11:00N 28°28' W 016°15'0 0.0
2019-Nov-22 09:00N 28°28' W 016°15'0 0.0
2019-Nov-22 08:30N 28°28' W 016°15'0 0.0
2019-Nov-22 07:30N 28°28' W 016°15'0 0.0
2019-Nov-22 07:00N 28°28' W 016°15'0 0.0
2019-Nov-22 06:00N 28°28' W 016°15'0 0.0
2019-Nov-22 03:30N 28°28' W 016°15'0 0.0
2019-Nov-22 02:30N 28°28' W 016°15'0 0.0
2019-Nov-21 23:30N 28°28' W 016°15'0 0.0
2019-Nov-21 19:30N 28°28' W 016°15'0 0.0
2019-Nov-21 18:00N 28°28' W 016°15'0 0.0
2019-Nov-21 17:00N 28°28' W 016°15'0 0.0
2019-Nov-21 16:00N 28°28' W 016°15'0 0.0
2019-Nov-21 15:30N 28°28' W 016°15'0 0.0
2019-Nov-21 12:30N 28°28' W 016°15'0 0.0
2019-Nov-21 12:00N 28°28' W 016°15'0 0.0
2019-Nov-21 10:30N 28°28' W 016°15'0 0.0
2019-Nov-21 10:00N 28°28' W 016°15'0 0.0
2019-Nov-21 09:00N 28°28' W 016°15'0 0.0
2019-Nov-21 07:30N 28°28' W 016°15'0 0.0
2019-Nov-21 05:30N 28°28' W 016°15'0 0.0
2019-Nov-21 03:30N 28°28' W 016°15'0 0.0
2019-Nov-21 01:30N 28°28' W 016°15'0 0.0
2019-Nov-21 00:30N 28°28' W 016°15'0 0.0
2019-Nov-20 23:00N 28°28' W 016°15'0 0.0
2019-Nov-20 22:00N 28°28' W 016°15'0 0.0
2019-Nov-20 21:30N 28°28' W 016°15'0 0.0
2019-Nov-20 21:00N 28°28' W 016°15'0 0.0
2019-Nov-20 20:00N 28°28' W 016°15'0 0.0
2019-Nov-20 18:30N 28°28' W 016°15'0 0.0
2019-Nov-20 18:00N 28°28' W 016°15'0 0.0
2019-Nov-20 14:30N 28°28' W 016°15'0 0.0
2019-Nov-20 13:00N 28°28' W 016°15'0 0.0
2019-Nov-20 12:00N 28°28' W 016°15'0 0.0
2019-Nov-20 08:30N 28°28' W 016°15'0 0.0
2019-Nov-20 07:30N 28°28' W 016°15'0 0.0
2019-Nov-20 06:30N 28°28' W 016°15'0 0.0
2019-Nov-20 04:30N 28°28' W 016°15'0 0.0
2019-Nov-20 03:30N 28°28' W 016°15'0 0.0
2019-Nov-20 02:30N 28°28' W 016°15'0 0.0
2019-Nov-19 23:30N 28°28' W 016°15'0 0.0
2019-Nov-19 22:30N 28°28' W 016°15'0 0.0
2019-Nov-19 21:00N 28°28' W 016°15'0 0.0
2019-Nov-19 18:30N 28°28' W 016°15'0 0.0
2019-Nov-19 18:00N 28°28' W 016°15'0 0.0
2019-Nov-19 16:30N 28°28' W 016°15'0 0.0
2019-Nov-19 14:30N 28°28' W 016°15'0 0.0
2019-Nov-19 13:30N 28°28' W 016°15'0 0.0
2019-Nov-19 10:57N 28°28' W 016°15'0 0.0
2019-Nov-19 09:00N 28°28' W 016°15'0 0.0
2019-Nov-19 07:00N 28°28' W 016°15'0 0.0
2019-Nov-19 04:30N 28°28' W 016°15'0 0.0
2019-Nov-19 02:00N 28°28' W 016°15'0 0.0
2019-Nov-18 23:30N 28°28' W 016°15'0 0.0
2019-Nov-18 22:30N 28°28' W 016°15'0 0.0
2019-Nov-18 22:00N 28°28' W 016°15'0 0.0
2019-Nov-18 21:30N 28°28' W 016°15'0 0.0
2019-Nov-18 20:30N 28°28' W 016°15'0 0.0
2019-Nov-18 20:00N 28°28' W 016°15'0 0.0
2019-Nov-18 19:30N 28°28' W 016°15'0 0.0
2019-Nov-18 16:00N 28°28' W 016°15'0 0.0
2019-Nov-18 15:30N 28°28' W 016°15'1 0.4
2019-Nov-18 13:01N 28°27' W 016°14'3 5.9
2019-Nov-18 12:31N 28°27' W 016°10'8 5.2
2019-Nov-18 11:00N 28°34' W 016°06'  

Dump ship's entire track history